createdAt,value
2018-06-29T00:02:20.420Z,21.34
2018-06-29T00:05:23.180Z,21.21
2018-06-29T00:08:25.394Z,21.11
2018-06-29T00:11:27.471Z,21.05
2018-06-29T00:14:29.966Z,21.08
2018-06-29T00:17:32.964Z,21.15
2018-06-29T00:20:35.544Z,21.07
2018-06-29T00:23:39.019Z,21.15
2018-06-29T00:26:41.426Z,21.11
2018-06-29T00:29:43.576Z,21.03
2018-06-29T00:32:45.924Z,20.91
2018-06-29T00:35:48.109Z,20.90
2018-06-29T00:38:50.222Z,20.86
2018-06-29T00:41:52.188Z,20.85
2018-06-29T00:44:54.636Z,20.83
2018-06-29T00:47:57.181Z,20.82
2018-06-29T00:50:59.612Z,20.87
2018-06-29T00:54:02.723Z,20.97
2018-06-29T00:57:05.204Z,21.04
2018-06-29T01:00:08.219Z,21.10
2018-06-29T01:03:10.647Z,21.13
2018-06-29T01:06:12.875Z,21.09
2018-06-29T01:09:15.363Z,21.02
2018-06-29T01:12:17.348Z,20.88
2018-06-29T01:15:19.748Z,20.85
2018-06-29T01:18:21.848Z,20.84
2018-06-29T01:21:24.270Z,20.88
2018-06-29T01:24:26.423Z,21.00
2018-06-29T01:27:29.811Z,21.01
2018-06-29T01:30:33.143Z,20.96
2018-06-29T01:33:35.467Z,20.92
2018-06-29T01:37:01.445Z,20.90
2018-06-29T01:40:04.433Z,20.81
2018-06-29T01:43:06.517Z,20.68
2018-06-29T01:46:09.030Z,20.63
2018-06-29T01:49:11.555Z,20.61
2018-06-29T01:52:13.875Z,20.63
2018-06-29T01:55:29.203Z,20.59
2018-06-29T01:58:32.109Z,20.49
2018-06-29T02:01:34.670Z,20.54
2018-06-29T02:04:37.038Z,20.61
2018-06-29T02:07:39.171Z,20.64
2018-06-29T02:10:41.203Z,20.72
2018-06-29T02:13:44.606Z,20.77
2018-06-29T02:16:46.679Z,20.84
2018-06-29T02:19:48.733Z,20.86
2018-06-29T02:22:51.096Z,20.85
2018-06-29T02:25:53.248Z,20.88
2018-06-29T02:28:55.853Z,20.88
2018-06-29T02:31:58.225Z,20.89
2018-06-29T02:35:00.331Z,20.92
2018-06-29T02:38:04.086Z,20.96
2018-06-29T02:41:06.343Z,21.02
2018-06-29T02:44:08.359Z,21.05
2018-06-29T02:47:10.357Z,21.04
2018-06-29T02:50:26.922Z,20.99
2018-06-29T02:53:29.341Z,20.98
2018-06-29T02:56:32.643Z,21.02
2018-06-29T02:59:36.954Z,21.07
2018-06-29T03:02:39.015Z,21.10
2018-06-29T03:05:41.305Z,21.09
2018-06-29T03:08:43.465Z,21.10
2018-06-29T03:11:45.519Z,21.03
2018-06-29T03:14:48.024Z,20.99
2018-06-29T03:17:50.092Z,20.87
2018-06-29T03:20:52.467Z,20.76
2018-06-29T03:23:54.618Z,20.61
2018-06-29T03:26:56.596Z,20.40
2018-06-29T03:29:59.119Z,20.44
2018-06-29T03:33:03.084Z,20.47
2018-06-29T03:36:05.148Z,20.51
2018-06-29T03:39:08.554Z,20.49
2018-06-29T03:42:11.708Z,20.55
2018-06-29T03:45:14.158Z,20.58
2018-06-29T03:48:16.242Z,20.61
2018-06-29T03:51:18.252Z,20.62
2018-06-29T03:54:20.352Z,20.66
2018-06-29T03:57:22.406Z,20.64
2018-06-29T04:00:24.679Z,20.67
2018-06-29T04:03:26.813Z,20.69
2018-06-29T04:06:29.380Z,20.69
2018-06-29T04:09:32.837Z,20.70
2018-06-29T04:12:35.094Z,20.72
2018-06-29T04:15:37.443Z,20.71
2018-06-29T04:18:40.887Z,20.69
2018-06-29T04:21:42.951Z,20.63
2018-06-29T04:24:45.435Z,20.71
2018-06-29T04:27:47.474Z,20.63
2018-06-29T04:30:49.518Z,20.61
2018-06-29T04:33:51.845Z,20.59
2018-06-29T04:36:53.965Z,20.61
2018-06-29T04:39:55.979Z,20.62
2018-06-29T04:42:58.566Z,20.63
2018-06-29T04:46:00.652Z,20.68
2018-06-29T04:49:03.184Z,20.59
2018-06-29T04:52:06.869Z,20.47
2018-06-29T04:55:09.211Z,20.53
2018-06-29T04:58:11.617Z,20.53
2018-06-29T05:01:13.751Z,20.58
2018-06-29T05:04:16.118Z,20.64
2018-06-29T05:07:18.167Z,20.64
2018-06-29T05:10:20.251Z,20.67
2018-06-29T05:13:22.305Z,20.58
2018-06-29T05:16:24.731Z,20.58
2018-06-29T05:19:26.768Z,20.51
2018-06-29T05:22:28.849Z,20.53
2018-06-29T05:25:31.232Z,20.56
2018-06-29T05:28:34.828Z,20.56
2018-06-29T05:31:37.842Z,20.61
2018-06-29T05:34:40.195Z,20.67
2018-06-29T05:37:43.343Z,20.77
2018-06-29T05:40:45.856Z,20.80
2018-06-29T05:43:48.325Z,20.82
2018-06-29T05:47:21.650Z,20.86
2018-06-29T05:50:23.990Z,20.93
2018-06-29T05:53:26.303Z,20.98
2018-06-29T05:56:28.476Z,20.99
2018-06-29T05:59:30.487Z,21.02
2018-06-29T06:02:32.694Z,20.96
2018-06-29T06:05:34.976Z,21.01
2018-06-29T06:08:37.459Z,21.08
2018-06-29T06:11:40.139Z,21.12
2018-06-29T06:14:42.620Z,21.19
2018-06-29T06:17:44.610Z,21.24
2018-06-29T06:20:46.671Z,21.29
2018-06-29T06:23:48.724Z,21.33
2018-06-29T06:26:51.091Z,21.35
2018-06-29T06:29:53.176Z,21.29
2018-06-29T06:32:55.213Z,21.26
2018-06-29T06:35:57.586Z,21.25
2018-06-29T06:38:59.755Z,21.27
2018-06-29T06:42:02.150Z,21.31
2018-06-29T06:45:05.253Z,21.27
2018-06-29T06:48:07.315Z,21.24
2018-06-29T06:51:09.336Z,21.24
2018-06-29T06:54:11.559Z,21.22
2018-06-29T06:57:13.825Z,21.26
2018-06-29T07:00:16.390Z,21.17
2018-06-29T07:03:18.648Z,21.21
2018-06-29T07:06:20.965Z,21.25
2018-06-29T07:09:22.902Z,21.27
2018-06-29T07:12:25.070Z,21.15
2018-06-29T07:15:27.117Z,20.92
2018-06-29T07:18:29.527Z,20.97
2018-06-29T07:21:32.049Z,21.18
2018-06-29T07:24:35.590Z,21.29
2018-06-29T07:27:38.130Z,21.28
2018-06-29T07:30:40.658Z,21.29
2018-06-29T07:33:42.631Z,21.34
2018-06-29T07:36:45.140Z,21.36
2018-06-29T07:39:47.704Z,21.40
2018-06-29T07:42:49.681Z,21.32
2018-06-29T07:45:52.160Z,21.40
2018-06-29T07:48:55.176Z,21.47
2018-06-29T07:51:57.289Z,21.72
2018-06-29T07:54:59.783Z,21.92
2018-06-29T07:58:02.187Z,22.17
2018-06-29T08:01:05.866Z,22.33
2018-06-29T08:04:08.297Z,22.21
2018-06-29T08:07:11.240Z,22.31
2018-06-29T08:10:13.719Z,22.27
2018-06-29T08:13:15.876Z,22.36
2018-06-29T08:16:18.290Z,22.50
2018-06-29T08:19:20.373Z,22.55
2018-06-29T08:22:22.426Z,22.58
2018-06-29T08:25:24.917Z,22.54
2018-06-29T08:28:27.246Z,22.65
2018-06-29T08:31:29.883Z,22.76
2018-06-29T08:34:32.110Z,22.92
2018-06-29T08:37:36.295Z,22.91
2018-06-29T08:40:38.560Z,22.96
2018-06-29T08:43:41.046Z,22.88
2018-06-29T08:46:43.168Z,23.02
2018-06-29T08:49:45.570Z,23.08
2018-06-29T08:52:48.052Z,23.22
2018-06-29T08:55:50.100Z,23.45
2018-06-29T08:58:52.806Z,23.76
2018-06-29T09:01:55.165Z,23.97
2018-06-29T09:04:57.630Z,24.02
2018-06-29T09:08:00.187Z,23.87
2018-06-29T09:11:02.319Z,23.69
2018-06-29T09:14:05.604Z,23.79
2018-06-29T09:17:08.571Z,23.98
2018-06-29T09:20:10.747Z,24.04
2018-06-29T09:23:13.321Z,24.23
2018-06-29T09:26:15.823Z,24.39
2018-06-29T09:29:18.362Z,24.36
2018-06-29T09:32:20.852Z,24.32
2018-06-29T09:35:24.387Z,24.66
2018-06-29T09:38:26.879Z,24.79
2018-06-29T09:41:29.388Z,24.59
2018-06-29T09:44:31.961Z,24.60
2018-06-29T09:47:35.851Z,24.84
2018-06-29T09:50:38.384Z,25.06
2018-06-29T09:53:40.457Z,25.39
2018-06-29T09:56:42.958Z,25.49
2018-06-29T09:59:45.426Z,25.80
2018-06-29T10:02:49.036Z,26.04
2018-06-29T10:05:51.600Z,26.35
2018-06-29T10:08:54.070Z,26.39
2018-06-29T10:11:56.057Z,26.19
2018-06-29T10:14:59.931Z,26.51
2018-06-29T10:18:02.128Z,26.59
2018-06-29T10:21:04.464Z,26.88
2018-06-29T10:24:06.567Z,26.91
2018-06-29T10:27:08.620Z,26.93
2018-06-29T10:30:10.555Z,27.07
2018-06-29T10:33:12.715Z,27.27
2018-06-29T10:36:14.811Z,27.37
2018-06-29T10:39:17.923Z,27.38
2018-06-29T10:42:19.996Z,27.60
2018-06-29T10:45:22.085Z,27.47
2018-06-29T10:48:24.367Z,27.62
2018-06-29T10:51:26.416Z,28.10
2018-06-29T10:54:28.502Z,28.19
2018-06-29T10:57:30.573Z,28.07
2018-06-29T11:00:34.200Z,27.84
2018-06-29T11:03:36.672Z,28.02
2018-06-29T11:06:38.827Z,28.30
2018-06-29T11:09:40.923Z,28.48
2018-06-29T11:12:43.064Z,28.68
2018-06-29T11:15:45.219Z,28.83
2018-06-29T11:18:47.307Z,28.91
2018-06-29T11:21:53.146Z,29.02
2018-06-29T11:24:55.345Z,28.88
2018-06-29T11:27:57.515Z,28.68
2018-06-29T11:31:00.085Z,28.22
2018-06-29T11:34:02.357Z,27.75
2018-06-29T11:37:04.903Z,28.05
2018-06-29T11:40:08.183Z,28.08
2018-06-29T11:43:10.304Z,28.19
2018-06-29T11:46:12.443Z,28.67
2018-06-29T11:52:16.290Z,28.41
2018-06-29T11:55:18.499Z,28.13
2018-06-29T11:58:20.582Z,27.97
2018-06-29T12:01:22.782Z,27.99
2018-06-29T12:04:25.005Z,28.18
2018-06-29T12:07:26.963Z,28.27
2018-06-29T12:10:29.148Z,28.31
2018-06-29T12:13:31.237Z,28.38
2018-06-29T12:16:34.358Z,28.40
2018-06-29T12:19:36.371Z,28.64
2018-06-29T12:22:38.438Z,28.87
2018-06-29T12:25:40.480Z,28.91
2018-06-29T12:28:42.594Z,28.92
2018-06-29T12:31:44.700Z,29.02
2018-06-29T12:34:47.089Z,29.26
2018-06-29T12:37:49.185Z,29.18
2018-06-29T12:40:51.263Z,29.45
2018-06-29T12:43:53.408Z,29.49
2018-06-29T12:46:55.589Z,29.52
2018-06-29T12:49:57.657Z,29.47
2018-06-29T12:53:00.668Z,29.07
2018-06-29T12:56:02.851Z,28.94
2018-06-29T12:59:06.021Z,28.90
2018-06-29T13:02:09.112Z,29.36
2018-06-29T13:05:11.222Z,29.65
2018-06-29T13:08:13.319Z,30.11
2018-06-29T13:11:15.508Z,30.25
2018-06-29T13:14:18.124Z,30.38
2018-06-29T13:17:20.169Z,30.66
2018-06-29T13:20:23.277Z,30.41
2018-06-29T13:23:26.556Z,29.85
2018-06-29T13:26:28.642Z,29.64
2018-06-29T13:29:31.734Z,29.56
2018-06-29T13:32:33.927Z,29.59
2018-06-29T13:35:35.980Z,29.32
2018-06-29T13:38:38.076Z,29.33
2018-06-29T13:41:40.122Z,29.74
2018-06-29T13:44:42.173Z,29.67
2018-06-29T13:47:46.304Z,30.08
2018-06-29T13:50:48.276Z,30.11
2018-06-29T13:53:50.520Z,30.10
2018-06-29T13:56:52.613Z,30.42
2018-06-29T13:59:54.677Z,30.83
2018-06-29T14:02:56.736Z,31.17
2018-06-29T14:05:58.815Z,31.37
2018-06-29T14:09:01.945Z,31.43
2018-06-29T14:12:04.154Z,31.40
2018-06-29T14:15:07.111Z,31.71
2018-06-29T14:18:09.335Z,31.90
2018-06-29T14:21:11.332Z,31.86
2018-06-29T14:24:17.840Z,31.73
2018-06-29T14:27:20.227Z,31.89
2018-06-29T14:30:22.304Z,31.62
2018-06-29T14:33:24.540Z,31.59
2018-06-29T14:36:26.475Z,31.55
2018-06-29T14:39:28.511Z,30.99
2018-06-29T14:42:32.901Z,30.68
2018-06-29T14:45:36.079Z,30.57
2018-06-29T14:48:38.043Z,30.52
2018-06-29T14:51:40.146Z,30.35
2018-06-29T14:54:42.214Z,30.33
2018-06-29T14:57:44.341Z,30.46
2018-06-29T15:00:46.401Z,30.41
2018-06-29T15:03:48.584Z,30.19
2018-06-29T15:06:50.552Z,29.97
2018-06-29T15:09:53.622Z,30.00
2018-06-29T15:12:55.700Z,30.22
2018-06-29T15:15:57.856Z,30.42
2018-06-29T15:18:59.947Z,30.34
2018-06-29T15:22:03.416Z,30.66
2018-06-29T15:25:05.567Z,30.61
2018-06-29T15:28:07.673Z,30.82
2018-06-29T15:31:09.655Z,30.74
2018-06-29T15:34:11.730Z,30.72
2018-06-29T15:37:13.893Z,30.69
2018-06-29T15:40:15.895Z,31.00
2018-06-29T15:43:18.063Z,31.31
2018-06-29T15:46:20.079Z,31.45
2018-06-29T15:49:22.145Z,31.34
2018-06-29T15:52:24.194Z,31.24
2018-06-29T15:55:26.349Z,30.88
2018-06-29T15:58:29.651Z,30.93
2018-06-29T16:01:32.703Z,30.85
2018-06-29T16:04:34.740Z,30.80
2018-06-29T16:07:36.814Z,30.67
2018-06-29T16:10:38.808Z,30.73
2018-06-29T16:13:40.964Z,30.82
2018-06-29T16:16:43.118Z,30.91
2018-06-29T16:19:45.220Z,30.79
2018-06-29T16:22:47.256Z,30.72
2018-06-29T16:25:49.362Z,30.58
2018-06-29T16:28:51.397Z,30.63
2018-06-29T16:31:59.316Z,30.65
2018-06-29T16:35:02.511Z,30.76
2018-06-29T16:38:06.827Z,30.85
2018-06-29T16:41:08.994Z,30.85
2018-06-29T16:44:11.061Z,30.91
2018-06-29T16:47:13.155Z,31.10
2018-06-29T16:50:15.208Z,31.05
2018-06-29T16:53:17.570Z,31.03
2018-06-29T16:56:19.919Z,30.97
2018-06-29T16:59:22.021Z,31.00
2018-06-29T17:02:24.142Z,30.83
2018-06-29T17:05:26.311Z,30.66
2018-06-29T17:08:28.320Z,30.56
2018-06-29T17:11:30.499Z,30.48
2018-06-29T17:14:33.211Z,30.55
2018-06-29T17:17:35.704Z,30.61
2018-06-29T17:20:37.727Z,30.43
2018-06-29T17:23:39.957Z,30.35
2018-06-29T17:26:42.247Z,30.43
2018-06-29T17:29:44.374Z,30.54
2018-06-29T17:32:46.463Z,30.35
2018-06-29T17:35:48.668Z,30.33
2018-06-29T17:38:50.891Z,30.30
2018-06-29T17:41:53.979Z,30.31
2018-06-29T17:44:56.064Z,30.33
2018-06-29T17:47:58.400Z,30.25
2018-06-29T17:51:00.487Z,30.21
2018-06-29T17:54:02.912Z,30.22
2018-06-29T17:57:05.121Z,30.23
2018-06-29T18:00:07.269Z,30.16
2018-06-29T18:03:09.348Z,30.09
2018-06-29T18:06:11.589Z,29.99
2018-06-29T18:09:13.667Z,30.02
2018-06-29T18:12:15.632Z,30.07
2018-06-29T18:15:17.799Z,30.08
2018-06-29T18:18:19.869Z,30.00
2018-06-29T18:21:23.107Z,29.91
2018-06-29T18:24:25.563Z,29.86
2018-06-29T18:27:27.668Z,29.81
2018-06-29T18:30:30.779Z,29.75
2018-06-29T18:33:32.845Z,29.63
2018-06-29T18:36:34.962Z,29.62
2018-06-29T18:39:40.957Z,29.54
2018-06-29T18:42:43.234Z,29.48
2018-06-29T18:45:45.341Z,29.43
2018-06-29T18:48:49.111Z,29.40
2018-06-29T18:51:52.396Z,29.32
2018-06-29T18:54:54.523Z,29.21
2018-06-29T18:57:56.622Z,29.19
2018-06-29T19:00:58.699Z,29.16
2018-06-29T19:04:01.253Z,29.17
2018-06-29T19:07:03.431Z,29.12
2018-06-29T19:10:05.527Z,29.10
2018-06-29T19:13:07.623Z,29.05
2018-06-29T19:16:10.735Z,29.02
2018-06-29T19:19:12.872Z,28.96
2018-06-29T19:22:14.832Z,28.87
2018-06-29T19:25:16.976Z,28.84
2018-06-29T19:28:19.125Z,28.73
2018-06-29T19:31:21.955Z,28.61
2018-06-29T19:34:23.879Z,28.45
2018-06-29T19:37:25.883Z,28.34
2018-06-29T19:40:27.944Z,28.17
2018-06-29T19:43:30.039Z,27.94
2018-06-29T19:46:32.089Z,27.91
2018-06-29T19:49:34.185Z,27.78
2018-06-29T19:52:36.161Z,27.57
2018-06-29T19:55:39.039Z,27.41
2018-06-29T19:58:41.376Z,27.21
2018-06-29T20:01:43.478Z,27.09
2018-06-29T20:04:45.506Z,27.01
2018-06-29T20:07:47.518Z,26.88
2018-06-29T20:10:49.606Z,26.74
2018-06-29T20:13:51.664Z,26.64
2018-06-29T20:16:53.662Z,26.62
2018-06-29T20:19:55.720Z,26.54
2018-06-29T20:22:57.923Z,26.52
2018-06-29T20:26:00.160Z,26.48
2018-06-29T20:29:02.136Z,26.42
2018-06-29T20:32:04.353Z,26.25
2018-06-29T20:35:06.689Z,26.14
2018-06-29T20:38:08.750Z,26.09
2018-06-29T20:41:10.928Z,26.00
2018-06-29T20:44:12.966Z,25.91
2018-06-29T20:47:15.027Z,25.71
2018-06-29T20:50:18.270Z,25.59
2018-06-29T20:53:20.392Z,25.56
2018-06-29T20:56:22.560Z,25.54
2018-06-29T20:59:24.660Z,25.47
2018-06-29T21:02:26.744Z,25.47
2018-06-29T21:05:28.882Z,25.42
2018-06-29T21:08:30.980Z,25.33
2018-06-29T21:11:33.040Z,25.23
2018-06-29T21:14:35.017Z,25.16
2018-06-29T21:17:37.141Z,25.15
2018-06-29T21:20:39.652Z,24.97
2018-06-29T21:23:42.128Z,24.76
2018-06-29T21:26:44.195Z,24.75
2018-06-29T21:29:47.947Z,24.73
2018-06-29T21:32:49.962Z,24.65
2018-06-29T21:35:51.926Z,24.65
2018-06-29T21:38:53.979Z,24.62
2018-06-29T21:41:56.067Z,24.63
2018-06-29T21:44:58.169Z,24.59
2018-06-29T21:48:00.107Z,24.62
2018-06-29T21:51:02.207Z,24.48
2018-06-29T21:54:04.267Z,24.37
2018-06-29T21:57:06.344Z,24.27
2018-06-29T22:00:10.124Z,24.20
2018-06-29T22:03:12.860Z,24.21
2018-06-29T22:06:14.809Z,24.24
2018-06-29T22:09:17.495Z,24.10
2018-06-29T22:12:19.668Z,24.03
2018-06-29T22:15:24.048Z,23.99
2018-06-29T22:18:26.040Z,24.02
2018-06-29T22:21:33.345Z,24.02
2018-06-29T22:24:35.405Z,24.00
2018-06-29T22:27:37.485Z,24.00
2018-06-29T22:30:39.524Z,24.01
2018-06-29T22:33:41.640Z,24.04
2018-06-29T22:36:45.728Z,24.02
2018-06-29T22:39:48.327Z,23.98
2018-06-29T22:42:50.399Z,23.96
2018-06-29T22:45:52.563Z,23.81
2018-06-29T22:48:54.760Z,23.59
2018-06-29T22:51:57.832Z,23.46
2018-06-29T22:54:59.915Z,23.24
2018-06-29T22:58:01.985Z,23.08
2018-06-29T23:01:04.095Z,22.95
2018-06-29T23:04:06.211Z,22.87
2018-06-29T23:07:08.357Z,22.78
2018-06-29T23:10:10.372Z,22.67
2018-06-29T23:13:12.468Z,22.63
2018-06-29T23:16:14.517Z,22.54
2018-06-29T23:19:17.076Z,22.55
2018-06-29T23:22:19.149Z,22.47
2018-06-29T23:25:42.196Z,22.36
2018-06-29T23:28:44.297Z,22.42
2018-06-29T23:31:46.423Z,22.34
2018-06-29T23:34:48.490Z,22.48
2018-06-29T23:37:50.546Z,22.52
2018-06-29T23:40:52.840Z,22.47
2018-06-29T23:43:54.939Z,22.35
2018-06-29T23:46:58.045Z,22.30
2018-06-29T23:50:00.012Z,22.18
2018-06-29T23:53:03.164Z,22.04
2018-06-29T23:56:05.288Z,21.96
2018-06-29T23:59:07.478Z,22.02
